sensor_id;sensor_type;location;lat;lon;timestamp;P1;P2;P0
54869;PMS5003;40756;-37.950;145.008;2023-09-19T00:02:04;6;6;
54869;PMS5003;40756;-37.950;145.008;2023-09-19T00:04:33;6;5;
54869;PMS5003;40756;-37.950;145.008;2023-09-19T00:07:03;6;6;
54869;PMS5003;40756;-37.950;145.008;2023-09-19T00:09:32;7;7;
54869;PMS5003;40756;-37.950;145.008;2023-09-19T00:12:01;5;5;
54869;PMS5003;40756;-37.950;145.008;2023-09-19T00:14:32;4;4;
54869;PMS5003;40756;-37.950;145.008;2023-09-19T00:17:01;7;7;
54869;PMS5003;40756;-37.950;145.008;2023-09-19T00:19:31;8;8;
54869;PMS5003;40756;-37.950;145.008;2023-09-19T00:22:01;6;5;
54869;PMS5003;40756;-37.950;145.008;2023-09-19T00:24:31;9;8;
54869;PMS5003;40756;-37.950;145.008;2023-09-19T00:27:00;7;6;
54869;PMS5003;40756;-37.950;145.008;2023-09-19T00:29:30;8;8;
54869;PMS5003;40756;-37.950;145.008;2023-09-19T00:31:59;5;5;
54869;PMS5003;40756;-37.950;145.008;2023-09-19T00:34:29;7;6;
54869;PMS5003;40756;-37.950;145.008;2023-09-19T00:37:00;6;6;
54869;PMS5003;40756;-37.950;145.008;2023-09-19T00:39:29;9;7;
54869;PMS5003;40756;-37.950;145.008;2023-09-19T00:41:59;6;5;
54869;PMS5003;40756;-37.950;145.008;2023-09-19T00:44:29;7;6;
54869;PMS5003;40756;-37.950;145.008;2023-09-19T00:46:59;4;4;
54869;PMS5003;40756;-37.950;145.008;2023-09-19T00:49:28;5;5;
54869;PMS5003;40756;-37.950;145.008;2023-09-19T00:51:58;6;6;
54869;PMS5003;40756;-37.950;145.008;2023-09-19T00:54:27;6;6;
54869;PMS5003;40756;-37.950;145.008;2023-09-19T00:56:57;6;5;
54869;PMS5003;40756;-37.950;145.008;2023-09-19T00:59:27;7;7;
54869;PMS5003;40756;-37.950;145.008;2023-09-19T01:01:57;6;5;
54869;PMS5003;40756;-37.950;145.008;2023-09-19T01:04:26;5;5;
54869;PMS5003;40756;-37.950;145.008;2023-09-19T01:06:56;8;8;
54869;PMS5003;40756;-37.950;145.008;2023-09-19T01:09:25;6;6;
54869;PMS5003;40756;-37.950;145.008;2023-09-19T01:11:57;4;4;
54869;PMS5003;40756;-37.950;145.008;2023-09-19T01:14:31;7;7;
54869;PMS5003;40756;-37.950;145.008;2023-09-19T01:17:13;7;7;
54869;PMS5003;40756;-37.950;145.008;2023-09-19T01:19:58;9;9;
54869;PMS5003;40756;-37.950;145.008;2023-09-19T01:22:43;10;9;
54869;PMS5003;40756;-37.950;145.008;2023-09-19T01:25:32;7;7;
54869;PMS5003;40756;-37.950;145.008;2023-09-19T01:28:21;8;8;
54869;PMS5003;40756;-37.950;145.008;2023-09-19T01:31:00;11;10;
54869;PMS5003;40756;-37.950;145.008;2023-09-19T01:33:54;7;7;
54869;PMS5003;40756;-37.950;145.008;2023-09-19T01:36:24;7;6;
54869;PMS5003;40756;-37.950;145.008;2023-09-19T01:38:56;7;6;
54869;PMS5003;40756;-37.950;145.008;2023-09-19T01:41:30;23;23;
54869;PMS5003;40756;-37.950;145.008;2023-09-19T01:44:11;10;9;
54869;PMS5003;40756;-37.950;145.008;2023-09-19T01:46:50;11;11;
54869;PMS5003;40756;-37.950;145.008;2023-09-19T01:49:27;11;10;
54869;PMS5003;40756;-37.950;145.008;2023-09-19T01:52:09;9;8;
54869;PMS5003;40756;-37.950;145.008;2023-09-19T01:54:41;8;8;
54869;PMS5003;40756;-37.950;145.008;2023-09-19T01:57:20;11;10;
54869;PMS5003;40756;-37.950;145.008;2023-09-19T01:59:57;10;9;
54869;PMS5003;40756;-37.950;145.008;2023-09-19T02:02:30;12;10;
54869;PMS5003;40756;-37.950;145.008;2023-09-19T02:05:01;12;11;
54869;PMS5003;40756;-37.950;145.008;2023-09-19T02:07:32;15;12;
54869;PMS5003;40756;-37.950;145.008;2023-09-19T02:10:01;9;8;
54869;PMS5003;40756;-37.950;145.008;2023-09-19T02:12:30;12;9;
54869;PMS5003;40756;-37.950;145.008;2023-09-19T02:15:00;11;11;
54869;PMS5003;40756;-37.950;145.008;2023-09-19T02:17:29;9;9;
54869;PMS5003;40756;-37.950;145.008;2023-09-19T02:19:58;11;11;
54869;PMS5003;40756;-37.950;145.008;2023-09-19T02:22:27;10;10;
54869;PMS5003;40756;-37.950;145.008;2023-09-19T02:24:57;15;14;
54869;PMS5003;40756;-37.950;145.008;2023-09-19T02:27:26;10;9;
54869;PMS5003;40756;-37.950;145.008;2023-09-19T02:29:55;11;10;
54869;PMS5003;40756;-37.950;145.008;2023-09-19T02:32:25;12;11;
54869;PMS5003;40756;-37.950;145.008;2023-09-19T02:34:54;12;11;
54869;PMS5003;40756;-37.950;145.008;2023-09-19T02:37:24;9;9;
54869;PMS5003;40756;-37.950;145.008;2023-09-19T02:39:53;10;8;
54869;PMS5003;40756;-37.950;145.008;2023-09-19T02:42:22;10;9;
54869;PMS5003;40756;-37.950;145.008;2023-09-19T02:44:51;8;8;
54869;PMS5003;40756;-37.950;145.008;2023-09-19T02:47:21;8;7;
54869;PMS5003;40756;-37.950;145.008;2023-09-19T02:49:51;8;7;
54869;PMS5003;40756;-37.950;145.008;2023-09-19T02:52:20;7;7;
54869;PMS5003;40756;-37.950;145.008;2023-09-19T02:54:49;9;8;
54869;PMS5003;40756;-37.950;145.008;2023-09-19T02:57:19;8;7;
54869;PMS5003;40756;-37.950;145.008;2023-09-19T02:59:48;9;9;
54869;PMS5003;40756;-37.950;145.008;2023-09-19T03:02:18;7;7;
54869;PMS5003;40756;-37.950;145.008;2023-09-19T03:04:48;8;8;
54869;PMS5003;40756;-37.950;145.008;2023-09-19T03:07:18;12;10;
54869;PMS5003;40756;-37.950;145.008;2023-09-19T03:09:47;7;6;
54869;PMS5003;40756;-37.950;145.008;2023-09-19T03:12:16;8;6;
54869;PMS5003;40756;-37.950;145.008;2023-09-19T03:14:46;7;7;
54869;PMS5003;40756;-37.950;145.008;2023-09-19T03:17:16;8;7;
54869;PMS5003;40756;-37.950;145.008;2023-09-19T03:19:45;10;9;
54869;PMS5003;40756;-37.950;145.008;2023-09-19T03:22:15;7;6;
54869;PMS5003;40756;-37.950;145.008;2023-09-19T03:24:44;13;11;
54869;PMS5003;40756;-37.950;145.008;2023-09-19T03:27:13;9;8;
54869;PMS5003;40756;-37.950;145.008;2023-09-19T03:29:43;8;8;
54869;PMS5003;40756;-37.950;145.008;2023-09-19T03:32:12;8;8;
54869;PMS5003;40756;-37.950;145.008;2023-09-19T03:34:41;9;9;
54869;PMS5003;40756;-37.950;145.008;2023-09-19T03:37:10;9;9;
54869;PMS5003;40756;-37.950;145.008;2023-09-19T03:39:40;9;8;
54869;PMS5003;40756;-37.950;145.008;2023-09-19T03:42:10;10;10;
54869;PMS5003;40756;-37.950;145.008;2023-09-19T03:44:39;9;9;
54869;PMS5003;40756;-37.950;145.008;2023-09-19T03:47:08;8;8;
54869;PMS5003;40756;-37.950;145.008;2023-09-19T03:49:38;7;7;
54869;PMS5003;40756;-37.950;145.008;2023-09-19T03:52:08;9;9;
54869;PMS5003;40756;-37.950;145.008;2023-09-19T03:54:37;8;8;
54869;PMS5003;40756;-37.950;145.008;2023-09-19T03:57:06;7;7;
54869;PMS5003;40756;-37.950;145.008;2023-09-19T03:59:36;12;12;
54869;PMS5003;40756;-37.950;145.008;2023-09-19T04:02:05;27;26;
54869;PMS5003;40756;-37.950;145.008;2023-09-19T04:04:34;10;9;
54869;PMS5003;40756;-37.950;145.008;2023-09-19T04:07:03;9;8;
54869;PMS5003;40756;-37.950;145.008;2023-09-19T04:09:33;8;8;
54869;PMS5003;40756;-37.950;145.008;2023-09-19T04:12:02;9;9;
54869;PMS5003;40756;-37.950;145.008;2023-09-19T04:14:33;9;9;
54869;PMS5003;40756;-37.950;145.008;2023-09-19T04:17:02;9;9;
54869;PMS5003;40756;-37.950;145.008;2023-09-19T04:19:32;8;8;
54869;PMS5003;40756;-37.950;145.008;2023-09-19T04:22:01;11;9;
54869;PMS5003;40756;-37.950;145.008;2023-09-19T04:24:31;8;8;
54869;PMS5003;40756;-37.950;145.008;2023-09-19T04:27:00;8;7;
54869;PMS5003;40756;-37.950;145.008;2023-09-19T04:29:30;9;8;
54869;PMS5003;40756;-37.950;145.008;2023-09-19T04:31:59;7;7;
54869;PMS5003;40756;-37.950;145.008;2023-09-19T04:34:28;5;5;
54869;PMS5003;40756;-37.950;145.008;2023-09-19T04:36:58;6;5;
54869;PMS5003;40756;-37.950;145.008;2023-09-19T04:39:27;10;9;
54869;PMS5003;40756;-37.950;145.008;2023-09-19T04:41:56;6;6;
54869;PMS5003;40756;-37.950;145.008;2023-09-19T04:44:26;7;7;
54869;PMS5003;40756;-37.950;145.008;2023-09-19T04:46:55;8;8;
54869;PMS5003;40756;-37.950;145.008;2023-09-19T04:49:24;10;10;
54869;PMS5003;40756;-37.950;145.008;2023-09-19T04:51:55;8;7;
54869;PMS5003;40756;-37.950;145.008;2023-09-19T04:54:24;7;7;
54869;PMS5003;40756;-37.950;145.008;2023-09-19T04:56:53;10;9;
54869;PMS5003;40756;-37.950;145.008;2023-09-19T04:59:23;8;7;
54869;PMS5003;40756;-37.950;145.008;2023-09-19T05:01:53;8;8;
54869;PMS5003;40756;-37.950;145.008;2023-09-19T05:04:22;10;7;
54869;PMS5003;40756;-37.950;145.008;2023-09-19T05:06:52;8;8;
54869;PMS5003;40756;-37.950;145.008;2023-09-19T05:09:21;7;7;
54869;PMS5003;40756;-37.950;145.008;2023-09-19T05:11:50;9;9;
54869;PMS5003;40756;-37.950;145.008;2023-09-19T05:14:19;6;6;
54869;PMS5003;40756;-37.950;145.008;2023-09-19T05:16:49;8;7;
54869;PMS5003;40756;-37.950;145.008;2023-09-19T05:19:19;7;7;
54869;PMS5003;40756;-37.950;145.008;2023-09-19T05:21:48;43;43;
54869;PMS5003;40756;-37.950;145.008;2023-09-19T05:24:18;21;21;
54869;PMS5003;40756;-37.950;145.008;2023-09-19T05:26:48;12;11;
54869;PMS5003;40756;-37.950;145.008;2023-09-19T05:29:17;8;8;
54869;PMS5003;40756;-37.950;145.008;2023-09-19T05:31:46;8;8;
54869;PMS5003;40756;-37.950;145.008;2023-09-19T05:34:15;9;8;
54869;PMS5003;40756;-37.950;145.008;2023-09-19T05:36:45;9;9;
54869;PMS5003;40756;-37.950;145.008;2023-09-19T05:39:14;9;7;
54869;PMS5003;40756;-37.950;145.008;2023-09-19T05:41:43;17;17;
54869;PMS5003;40756;-37.950;145.008;2023-09-19T05:44:13;16;15;
54869;PMS5003;40756;-37.950;145.008;2023-09-19T05:46:42;14;14;
54869;PMS5003;40756;-37.950;145.008;2023-09-19T05:49:12;14;14;
54869;PMS5003;40756;-37.950;145.008;2023-09-19T05:51:42;17;17;
54869;PMS5003;40756;-37.950;145.008;2023-09-19T05:54:11;38;38;
54869;PMS5003;40756;-37.950;145.008;2023-09-19T05:56:41;19;19;
54869;PMS5003;40756;-37.950;145.008;2023-09-19T05:59:10;9;8;
54869;PMS5003;40756;-37.950;145.008;2023-09-19T06:01:40;9;8;
54869;PMS5003;40756;-37.950;145.008;2023-09-19T06:04:09;9;7;
54869;PMS5003;40756;-37.950;145.008;2023-09-19T06:06:38;8;7;
54869;PMS5003;40756;-37.950;145.008;2023-09-19T06:09:07;10;7;
54869;PMS5003;40756;-37.950;145.008;2023-09-19T06:11:37;8;8;
54869;PMS5003;40756;-37.950;145.008;2023-09-19T06:14:06;5;5;
54869;PMS5003;40756;-37.950;145.008;2023-09-19T06:16:35;8;8;
54869;PMS5003;40756;-37.950;145.008;2023-09-19T06:19:04;11;11;
54869;PMS5003;40756;-37.950;145.008;2023-09-19T06:21:34;31;31;
54869;PMS5003;40756;-37.950;145.008;2023-09-19T06:24:04;14;13;
54869;PMS5003;40756;-37.950;145.008;2023-09-19T06:26:34;47;47;
54869;PMS5003;40756;-37.950;145.008;2023-09-19T06:29:04;35;35;
54869;PMS5003;40756;-37.950;145.008;2023-09-19T06:31:34;47;46;
54869;PMS5003;40756;-37.950;145.008;2023-09-19T06:34:03;25;25;
54869;PMS5003;40756;-37.950;145.008;2023-09-19T06:36:32;7;7;
54869;PMS5003;40756;-37.950;145.008;2023-09-19T06:39:02;9;8;
54869;PMS5003;40756;-37.950;145.008;2023-09-19T06:41:31;7;6;
54869;PMS5003;40756;-37.950;145.008;2023-09-19T06:44:00;7;7;
54869;PMS5003;40756;-37.950;145.008;2023-09-19T06:46:30;8;8;
54869;PMS5003;40756;-37.950;145.008;2023-09-19T06:48:59;9;8;
54869;PMS5003;40756;-37.950;145.008;2023-09-19T06:51:28;7;7;
54869;PMS5003;40756;-37.950;145.008;2023-09-19T06:53:58;8;8;
54869;PMS5003;40756;-37.950;145.008;2023-09-19T06:56:28;9;8;
54869;PMS5003;40756;-37.950;145.008;2023-09-19T06:58:57;8;7;
54869;PMS5003;40756;-37.950;145.008;2023-09-19T07:01:26;10;7;
54869;PMS5003;40756;-37.950;145.008;2023-09-19T07:03:55;9;8;
54869;PMS5003;40756;-37.950;145.008;2023-09-19T07:06:25;8;8;
54869;PMS5003;40756;-37.950;145.008;2023-09-19T07:08:54;9;9;
54869;PMS5003;40756;-37.950;145.008;2023-09-19T07:11:24;8;7;
54869;PMS5003;40756;-37.950;145.008;2023-09-19T07:13:53;10;10;
54869;PMS5003;40756;-37.950;145.008;2023-09-19T07:16:22;10;9;
54869;PMS5003;40756;-37.950;145.008;2023-09-19T07:18:52;19;18;
54869;PMS5003;40756;-37.950;145.008;2023-09-19T07:21:21;13;13;
54869;PMS5003;40756;-37.950;145.008;2023-09-19T07:23:51;10;9;
54869;PMS5003;40756;-37.950;145.008;2023-09-19T07:26:20;9;9;
54869;PMS5003;40756;-37.950;145.008;2023-09-19T07:28:50;15;14;
54869;PMS5003;40756;-37.950;145.008;2023-09-19T07:31:19;8;8;
54869;PMS5003;40756;-37.950;145.008;2023-09-19T07:33:48;10;9;
54869;PMS5003;40756;-37.950;145.008;2023-09-19T07:36:18;6;6;
54869;PMS5003;40756;-37.950;145.008;2023-09-19T07:38:47;6;6;
54869;PMS5003;40756;-37.950;145.008;2023-09-19T07:41:16;8;8;
54869;PMS5003;40756;-37.950;145.008;2023-09-19T07:43:46;8;6;
54869;PMS5003;40756;-37.950;145.008;2023-09-19T07:46:15;8;8;
54869;PMS5003;40756;-37.950;145.008;2023-09-19T07:48:45;7;7;
54869;PMS5003;40756;-37.950;145.008;2023-09-19T07:51:15;6;5;
54869;PMS5003;40756;-37.950;145.008;2023-09-19T07:53:44;7;7;
54869;PMS5003;40756;-37.950;145.008;2023-09-19T07:56:14;7;6;
54869;PMS5003;40756;-37.950;145.008;2023-09-19T07:58:44;7;6;
54869;PMS5003;40756;-37.950;145.008;2023-09-19T08:01:13;6;5;
54869;PMS5003;40756;-37.950;145.008;2023-09-19T08:03:43;7;6;
54869;PMS5003;40756;-37.950;145.008;2023-09-19T08:06:12;8;7;
54869;PMS5003;40756;-37.950;145.008;2023-09-19T08:08:42;6;6;
54869;PMS5003;40756;-37.950;145.008;2023-09-19T08:11:11;6;5;
54869;PMS5003;40756;-37.950;145.008;2023-09-19T08:13:41;7;7;
54869;PMS5003;40756;-37.950;145.008;2023-09-19T08:16:10;8;7;
54869;PMS5003;40756;-37.950;145.008;2023-09-19T08:18:40;9;7;
54869;PMS5003;40756;-37.950;145.008;2023-09-19T08:21:11;6;6;
54869;PMS5003;40756;-37.950;145.008;2023-09-19T08:23:40;9;8;
54869;PMS5003;40756;-37.950;145.008;2023-09-19T08:26:10;6;6;
54869;PMS5003;40756;-37.950;145.008;2023-09-19T08:28:39;8;7;
54869;PMS5003;40756;-37.950;145.008;2023-09-19T08:31:10;10;7;
54869;PMS5003;40756;-37.950;145.008;2023-09-19T08:33:40;7;5;
54869;PMS5003;40756;-37.950;145.008;2023-09-19T08:36:14;4;4;
54869;PMS5003;40756;-37.950;145.008;2023-09-19T08:38:44;5;5;
54869;PMS5003;40756;-37.950;145.008;2023-09-19T08:41:13;5;5;
54869;PMS5003;40756;-37.950;145.008;2023-09-19T08:43:44;7;7;
54869;PMS5003;40756;-37.950;145.008;2023-09-19T08:46:15;5;5;
54869;PMS5003;40756;-37.950;145.008;2023-09-19T08:48:46;7;7;
54869;PMS5003;40756;-37.950;145.008;2023-09-19T08:51:26;5;5;
54869;PMS5003;40756;-37.950;145.008;2023-09-19T08:54:03;5;5;
54869;PMS5003;40756;-37.950;145.008;2023-09-19T08:56:36;6;6;
54869;PMS5003;40756;-37.950;145.008;2023-09-19T08:59:06;5;5;
54869;PMS5003;40756;-37.950;145.008;2023-09-19T09:01:36;8;7;
54869;PMS5003;40756;-37.950;145.008;2023-09-19T09:04:08;6;5;
54869;PMS5003;40756;-37.950;145.008;2023-09-19T09:06:39;4;4;
54869;PMS5003;40756;-37.950;145.008;2023-09-19T09:09:09;4;4;
54869;PMS5003;40756;-37.950;145.008;2023-09-19T09:11:38;4;4;
54869;PMS5003;40756;-37.950;145.008;2023-09-19T09:14:08;5;5;
54869;PMS5003;40756;-37.950;145.008;2023-09-19T09:16:38;6;6;
54869;PMS5003;40756;-37.950;145.008;2023-09-19T09:19:07;6;5;
54869;PMS5003;40756;-37.950;145.008;2023-09-19T09:21:37;5;5;
54869;PMS5003;40756;-37.950;145.008;2023-09-19T09:24:51;8;6;
54869;PMS5003;40756;-37.950;145.008;2023-09-19T09:27:21;4;4;
54869;PMS5003;40756;-37.950;145.008;2023-09-19T09:29:51;5;5;
54869;PMS5003;40756;-37.950;145.008;2023-09-19T09:32:21;6;6;
54869;PMS5003;40756;-37.950;145.008;2023-09-19T09:34:53;6;5;
54869;PMS5003;40756;-37.950;145.008;2023-09-19T09:37:24;6;5;
54869;PMS5003;40756;-37.950;145.008;2023-09-19T09:39:55;5;5;
54869;PMS5003;40756;-37.950;145.008;2023-09-19T09:42:30;6;6;
54869;PMS5003;40756;-37.950;145.008;2023-09-19T09:45:13;4;4;
54869;PMS5003;40756;-37.950;145.008;2023-09-19T09:47:45;4;4;
54869;PMS5003;40756;-37.950;145.008;2023-09-19T09:50:15;6;6;
54869;PMS5003;40756;-37.950;145.008;2023-09-19T09:52:53;5;5;
54869;PMS5003;40756;-37.950;145.008;2023-09-19T09:55:23;5;4;
54869;PMS5003;40756;-37.950;145.008;2023-09-19T09:58:00;7;6;
54869;PMS5003;40756;-37.950;145.008;2023-09-19T10:00:54;4;4;
54869;PMS5003;40756;-37.950;145.008;2023-09-19T10:03:33;5;5;
54869;PMS5003;40756;-37.950;145.008;2023-09-19T10:06:03;5;5;
54869;PMS5003;40756;-37.950;145.008;2023-09-19T10:08:33;5;4;
54869;PMS5003;40756;-37.950;145.008;2023-09-19T10:11:16;4;4;
54869;PMS5003;40756;-37.950;145.008;2023-09-19T10:13:45;3;3;
54869;PMS5003;40756;-37.950;145.008;2023-09-19T10:16:15;5;5;
54869;PMS5003;40756;-37.950;145.008;2023-09-19T10:18:46;5;5;
54869;PMS5003;40756;-37.950;145.008;2023-09-19T10:21:19;5;4;
54869;PMS5003;40756;-37.950;145.008;2023-09-19T10:23:48;6;5;
54869;PMS5003;40756;-37.950;145.008;2023-09-19T10:26:20;5;5;
54869;PMS5003;40756;-37.950;145.008;2023-09-19T10:28:50;4;4;
54869;PMS5003;40756;-37.950;145.008;2023-09-19T10:31:21;5;5;
54869;PMS5003;40756;-37.950;145.008;2023-09-19T10:33:52;3;3;
54869;PMS5003;40756;-37.950;145.008;2023-09-19T10:36:23;5;5;
54869;PMS5003;40756;-37.950;145.008;2023-09-19T10:38:54;5;4;
54869;PMS5003;40756;-37.950;145.008;2023-09-19T10:41:25;7;6;
54869;PMS5003;40756;-37.950;145.008;2023-09-19T10:43:59;4;4;
54869;PMS5003;40756;-37.950;145.008;2023-09-19T10:46:32;5;5;
54869;PMS5003;40756;-37.950;145.008;2023-09-19T10:49:02;3;3;
54869;PMS5003;40756;-37.950;145.008;2023-09-19T10:51:41;4;4;
54869;PMS5003;40756;-37.950;145.008;2023-09-19T10:54:13;4;4;
54869;PMS5003;40756;-37.950;145.008;2023-09-19T10:56:47;4;3;
54869;PMS5003;40756;-37.950;145.008;2023-09-19T10:59:18;3;2;
54869;PMS5003;40756;-37.950;145.008;2023-09-19T11:01:49;4;3;
54869;PMS5003;40756;-37.950;145.008;2023-09-19T11:04:22;5;4;
54869;PMS5003;40756;-37.950;145.008;2023-09-19T11:07:00;6;5;
54869;PMS5003;40756;-37.950;145.008;2023-09-19T11:09:48;4;3;
54869;PMS5003;40756;-37.950;145.008;2023-09-19T11:12:50;2;2;
54869;PMS5003;40756;-37.950;145.008;2023-09-19T11:16:26;3;3;
54869;PMS5003;40756;-37.950;145.008;2023-09-19T11:18:56;2;2;
54869;PMS5003;40756;-37.950;145.008;2023-09-19T11:21:42;2;2;
54869;PMS5003;40756;-37.950;145.008;2023-09-19T11:24:29;3;2;
54869;PMS5003;40756;-37.950;145.008;2023-09-19T11:27:15;4;4;
54869;PMS5003;40756;-37.950;145.008;2023-09-19T11:29:44;5;4;
54869;PMS5003;40756;-37.950;145.008;2023-09-19T11:32:14;4;3;
54869;PMS5003;40756;-37.950;145.008;2023-09-19T11:34:45;4;4;
54869;PMS5003;40756;-37.950;145.008;2023-09-19T11:38:03;4;4;
54869;PMS5003;40756;-37.950;145.008;2023-09-19T11:40:32;4;4;
54869;PMS5003;40756;-37.950;145.008;2023-09-19T11:43:23;2;2;
54869;PMS5003;40756;-37.950;145.008;2023-09-19T11:46:05;2;2;
54869;PMS5003;40756;-37.950;145.008;2023-09-19T11:48:35;3;3;
54869;PMS5003;40756;-37.950;145.008;2023-09-19T11:51:16;2;2;
54869;PMS5003;40756;-37.950;145.008;2023-09-19T11:53:47;3;3;
54869;PMS5003;40756;-37.950;145.008;2023-09-19T11:56:17;3;3;
54869;PMS5003;40756;-37.950;145.008;2023-09-19T11:58:49;5;4;
54869;PMS5003;40756;-37.950;145.008;2023-09-19T12:01:22;2;2;
54869;PMS5003;40756;-37.950;145.008;2023-09-19T12:03:54;2;2;
54869;PMS5003;40756;-37.950;145.008;2023-09-19T12:06:25;2;2;
54869;PMS5003;40756;-37.950;145.008;2023-09-19T12:08:55;2;2;
54869;PMS5003;40756;-37.950;145.008;2023-09-19T12:11:26;3;3;
54869;PMS5003;40756;-37.950;145.008;2023-09-19T12:13:57;3;3;
54869;PMS5003;40756;-37.950;145.008;2023-09-19T12:16:28;5;3;
54869;PMS5003;40756;-37.950;145.008;2023-09-19T12:18:58;4;3;
54869;PMS5003;40756;-37.950;145.008;2023-09-19T12:21:53;3;3;
54869;PMS5003;40756;-37.950;145.008;2023-09-19T12:24:24;3;3;
54869;PMS5003;40756;-37.950;145.008;2023-09-19T12:26:54;3;2;
54869;PMS5003;40756;-37.950;145.008;2023-09-19T12:29:29;1;1;
54869;PMS5003;40756;-37.950;145.008;2023-09-19T12:31:59;2;2;
54869;PMS5003;40756;-37.950;145.008;2023-09-19T12:34:29;4;3;
54869;PMS5003;40756;-37.950;145.008;2023-09-19T12:37:07;3;3;
54869;PMS5003;40756;-37.950;145.008;2023-09-19T12:39:38;3;3;
54869;PMS5003;40756;-37.950;145.008;2023-09-19T12:42:10;2;2;
54869;PMS5003;40756;-37.950;145.008;2023-09-19T12:44:41;4;4;
54869;PMS5003;40756;-37.950;145.008;2023-09-19T12:47:13;1;1;
54869;PMS5003;40756;-37.950;145.008;2023-09-19T12:50:16;4;3;
54869;PMS5003;40756;-37.950;145.008;2023-09-19T12:52:47;3;3;
54869;PMS5003;40756;-37.950;145.008;2023-09-19T12:55:21;4;3;
54869;PMS5003;40756;-37.950;145.008;2023-09-19T12:58:01;3;2;
54869;PMS5003;40756;-37.950;145.008;2023-09-19T13:00:37;2;2;
54869;PMS5003;40756;-37.950;145.008;2023-09-19T13:03:16;2;1;
54869;PMS5003;40756;-37.950;145.008;2023-09-19T13:05:47;2;2;
54869;PMS5003;40756;-37.950;145.008;2023-09-19T13:08:19;2;2;
54869;PMS5003;40756;-37.950;145.008;2023-09-19T13:11:07;3;2;
54869;PMS5003;40756;-37.950;145.008;2023-09-19T13:13:39;1;1;
54869;PMS5003;40756;-37.950;145.008;2023-09-19T13:16:10;1;1;
54869;PMS5003;40756;-37.950;145.008;2023-09-19T13:18:44;2;2;
54869;PMS5003;40756;-37.950;145.008;2023-09-19T13:21:16;2;2;
54869;PMS5003;40756;-37.950;145.008;2023-09-19T13:23:56;3;3;
54869;PMS5003;40756;-37.950;145.008;2023-09-19T13:26:44;2;2;
54869;PMS5003;40756;-37.950;145.008;2023-09-19T13:29:14;1;1;
54869;PMS5003;40756;-37.950;145.008;2023-09-19T13:31:45;2;2;
54869;PMS5003;40756;-37.950;145.008;2023-09-19T13:34:16;2;2;
54869;PMS5003;40756;-37.950;145.008;2023-09-19T13:36:45;2;2;
54869;PMS5003;40756;-37.950;145.008;2023-09-19T13:39:15;1;1;
54869;PMS5003;40756;-37.950;145.008;2023-09-19T13:41:44;1;1;
54869;PMS5003;40756;-37.950;145.008;2023-09-19T13:44:15;1;1;
54869;PMS5003;40756;-37.950;145.008;2023-09-19T13:46:45;1;1;
54869;PMS5003;40756;-37.950;145.008;2023-09-19T13:49:14;1;1;
54869;PMS5003;40756;-37.950;145.008;2023-09-19T13:51:44;1;1;
54869;PMS5003;40756;-37.950;145.008;2023-09-19T13:54:13;1;1;
54869;PMS5003;40756;-37.950;145.008;2023-09-19T13:56:43;0;0;
54869;PMS5003;40756;-37.950;145.008;2023-09-19T13:59:13;0;0;
54869;PMS5003;40756;-37.950;145.008;2023-09-19T14:01:42;0;0;
54869;PMS5003;40756;-37.950;145.008;2023-09-19T14:04:12;0;0;
54869;PMS5003;40756;-37.950;145.008;2023-09-19T14:06:42;1;1;
54869;PMS5003;40756;-37.950;145.008;2023-09-19T14:09:11;0;0;
54869;PMS5003;40756;-37.950;145.008;2023-09-19T14:11:41;1;1;
54869;PMS5003;40756;-37.950;145.008;2023-09-19T14:14:10;1;1;
54869;PMS5003;40756;-37.950;145.008;2023-09-19T14:16:40;0;0;
54869;PMS5003;40756;-37.950;145.008;2023-09-19T14:19:09;0;0;
54869;PMS5003;40756;-37.950;145.008;2023-09-19T14:21:39;0;0;
54869;PMS5003;40756;-37.950;145.008;2023-09-19T14:24:08;0;0;
54869;PMS5003;40756;-37.950;145.008;2023-09-19T14:26:38;0;0;
54869;PMS5003;40756;-37.950;145.008;2023-09-19T14:29:07;0;0;
54869;PMS5003;40756;-37.950;145.008;2023-09-19T14:31:37;0;0;
54869;PMS5003;40756;-37.950;145.008;2023-09-19T14:34:07;1;1;
54869;PMS5003;40756;-37.950;145.008;2023-09-19T14:36:36;0;0;
54869;PMS5003;40756;-37.950;145.008;2023-09-19T14:39:06;0;0;
54869;PMS5003;40756;-37.950;145.008;2023-09-19T14:41:35;0;0;
54869;PMS5003;40756;-37.950;145.008;2023-09-19T14:44:05;0;0;
54869;PMS5003;40756;-37.950;145.008;2023-09-19T14:46:36;0;0;
54869;PMS5003;40756;-37.950;145.008;2023-09-19T14:49:06;0;0;
54869;PMS5003;40756;-37.950;145.008;2023-09-19T14:51:35;1;1;
54869;PMS5003;40756;-37.950;145.008;2023-09-19T14:54:06;0;0;
54869;PMS5003;40756;-37.950;145.008;2023-09-19T14:56:35;1;1;
54869;PMS5003;40756;-37.950;145.008;2023-09-19T14:59:05;0;0;
54869;PMS5003;40756;-37.950;145.008;2023-09-19T15:01:34;1;1;
54869;PMS5003;40756;-37.950;145.008;2023-09-19T15:04:04;1;0;
54869;PMS5003;40756;-37.950;145.008;2023-09-19T15:06:33;2;1;
54869;PMS5003;40756;-37.950;145.008;2023-09-19T15:09:04;0;0;
54869;PMS5003;40756;-37.950;145.008;2023-09-19T15:11:33;0;0;
54869;PMS5003;40756;-37.950;145.008;2023-09-19T15:14:03;0;0;
54869;PMS5003;40756;-37.950;145.008;2023-09-19T15:16:32;1;1;
54869;PMS5003;40756;-37.950;145.008;2023-09-19T15:19:02;1;1;
54869;PMS5003;40756;-37.950;145.008;2023-09-19T15:21:32;0;0;
54869;PMS5003;40756;-37.950;145.008;2023-09-19T15:24:01;1;1;
54869;PMS5003;40756;-37.950;145.008;2023-09-19T15:26:31;0;0;
54869;PMS5003;40756;-37.950;145.008;2023-09-19T15:29:00;1;1;
54869;PMS5003;40756;-37.950;145.008;2023-09-19T15:31:30;0;0;
54869;PMS5003;40756;-37.950;145.008;2023-09-19T15:33:59;0;0;
54869;PMS5003;40756;-37.950;145.008;2023-09-19T15:36:29;1;1;
54869;PMS5003;40756;-37.950;145.008;2023-09-19T15:38:59;0;0;
54869;PMS5003;40756;-37.950;145.008;2023-09-19T15:41:31;1;1;
54869;PMS5003;40756;-37.950;145.008;2023-09-19T15:44:02;1;0;
54869;PMS5003;40756;-37.950;145.008;2023-09-19T15:46:38;0;0;
54869;PMS5003;40756;-37.950;145.008;2023-09-19T15:49:07;1;1;
54869;PMS5003;40756;-37.950;145.008;2023-09-19T15:51:38;1;1;
54869;PMS5003;40756;-37.950;145.008;2023-09-19T15:54:09;0;0;
54869;PMS5003;40756;-37.950;145.008;2023-09-19T15:56:39;0;0;
54869;PMS5003;40756;-37.950;145.008;2023-09-19T15:59:10;0;0;
54869;PMS5003;40756;-37.950;145.008;2023-09-19T16:01:40;0;0;
54869;PMS5003;40756;-37.950;145.008;2023-09-19T16:04:11;0;0;
54869;PMS5003;40756;-37.950;145.008;2023-09-19T16:06:41;0;0;
54869;PMS5003;40756;-37.950;145.008;2023-09-19T16:09:11;0;0;
54869;PMS5003;40756;-37.950;145.008;2023-09-19T16:11:41;1;1;
54869;PMS5003;40756;-37.950;145.008;2023-09-19T16:14:11;0;0;
54869;PMS5003;40756;-37.950;145.008;2023-09-19T16:16:40;0;0;
54869;PMS5003;40756;-37.950;145.008;2023-09-19T16:19:10;0;0;
54869;PMS5003;40756;-37.950;145.008;2023-09-19T16:21:39;1;1;
54869;PMS5003;40756;-37.950;145.008;2023-09-19T16:24:09;0;0;
54869;PMS5003;40756;-37.950;145.008;2023-09-19T16:26:39;0;0;